1998 BABS (1998285N12149)


On this page: IBTrACS data - Map and Plots - Positions - Intensities - Original source data

Summary

Start Oct 11
End Oct 30
Basin WP
LMI 135 kt
Sources jtwc_wp
tokyo
cma
hko
In WMO? Yes
Previous storm 1998 KAY (EP)
Previous in basin 1998 MISSING (WP)
Concurrent storms 1998 ZEB (WP)
1998 MISSING (WP)
1998 MADELINE (EP)
1998 KAY (EP)
1998 BABS (WP)
1998 MISSING (NI)
1998 MISSING (NI)
1998 LESTER (EP)
1998 MITCH (NA)
1998 MISSING (NI)
Next in basin Missing
Next storm 1998 MISSING (NI)

top of page IBTrACS Data: File Access

top of page HURSAT Data: File Access

Image of storm

top of page Plots:

Map of storm track will not appear if FTP is down
Time series of cyclone Maximum Sustained Wind will not appear if FTP is down
Time series of cyclone Minimum Central Pressure will not appear if FTP is down

top of page Track Data:Position

jtwc_wp tokyo cma hko
Date Lat Lon Lat Lon Lat Lon Lat Lon
1998-10-11 18:00:00 12.1 149.2
1998-10-12 00:00:00 12.5 148.3
1998-10-12 06:00:00 12.5 147.1
1998-10-12 12:00:00 12.2 145.9
1998-10-12 18:00:00 11.9 144.9
1998-10-13 00:00:00 11.6 143.8
1998-10-13 06:00:00 11.6 142.9
1998-10-13 12:00:00 11.6 142.0
1998-10-13 18:00:00 11.7 140.9
1998-10-14 00:00:00 11.7 139.7
1998-10-14 06:00:00 11.7 138.8 10.5 138.3
1998-10-14 12:00:00 11.7 137.9 10.8 137.6
1998-10-14 18:00:00 11.7 137.0 11.3 136.8
1998-10-15 00:00:00 11.8 136.1 11.6 136.0 11.6 136.1
1998-10-15 06:00:00 11.9 135.2 11.8 135.3 11.9 135.2
1998-10-15 12:00:00 11.9 134.1 11.9 134.5 12.0 134.2
1998-10-15 18:00:00 12.0 133.0 11.9 133.5 12.0 133.3
1998-10-16 00:00:00 12.0 132.6 11.8 132.7 12.0 132.5
1998-10-16 06:00:00 12.1 132.4 11.8 132.3 12.0 132.0
1998-10-16 12:00:00 12.1 132.1 11.8 132.0 12.0 131.7
1998-10-16 18:00:00 12.2 131.8 11.8 131.7 12.0 131.4
1998-10-17 00:00:00 12.2 131.4 11.8 131.5 11.2 132.0 12.0 131.1
1998-10-17 06:00:00 12.1 131.0 11.8 131.1 11.5 131.5 12.0 130.8
1998-10-17 12:00:00 12.1 130.5 11.7 130.7 11.4 130.8 12.0 130.5
1998-10-17 18:00:00 12.0 130.2 11.6 130.4 11.3 130.4 11.9 130.2
jtwc_wp tokyo cma hko
1998-10-18 00:00:00 11.8 130.1 11.4 130.1 11.2 130.0 11.7 130.0
1998-10-18 06:00:00 11.6 130.0 11.1 129.8 11.2 130.0 11.4 129.9
1998-10-18 12:00:00 11.3 129.9 10.8 129.7 10.8 129.9 11.1 129.8
1998-10-18 18:00:00 11.1 129.8 10.5 129.7 10.8 129.9 10.8 129.7
1998-10-19 00:00:00 11.0 129.7 10.6 129.9 10.5 129.7 10.6 129.6
1998-10-19 06:00:00 10.9 129.5 10.8 129.8 10.5 129.6 10.5 129.4
1998-10-19 12:00:00 10.9 129.3 10.9 129.5 10.5 129.6 10.7 129.1
1998-10-19 18:00:00 11.0 128.9 11.1 129.0 11.1 129.0 11.0 128.7
1998-10-20 00:00:00 11.3 128.3 11.5 128.2 11.5 128.2 11.4 128.2
1998-10-20 06:00:00 11.7 127.7 11.8 127.7 11.8 127.7 11.8 127.7
1998-10-20 12:00:00 12.2 127.1 12.2 127.2 12.2 127.2 12.2 127.2
1998-10-20 18:00:00 12.7 126.4 12.8 126.4 12.7 126.4 12.6 126.5
1998-10-21 00:00:00 13.0 125.6 13.2 125.7 13.0 125.6 13.0 125.6
1998-10-21 06:00:00 13.4 124.9 13.5 125.0 13.5 125.0 13.3 124.9
1998-10-21 12:00:00 13.7 124.2 13.7 124.3 13.7 124.3 13.6 124.3
1998-10-21 18:00:00 13.9 123.6 13.9 123.7 13.9 123.5 13.9 123.7
1998-10-22 00:00:00 14.2 123.1 14.1 123.2 14.2 123.2 14.2 123.1
1998-10-22 06:00:00 14.6 122.6 14.5 122.6 14.5 122.6 14.6 122.5
1998-10-22 12:00:00 15.0 122.0 14.9 122.0 15.0 122.0 15.0 121.9
1998-10-22 18:00:00 15.4 121.3 15.6 121.3 15.4 121.4 15.4 121.3
1998-10-23 00:00:00 16.0 120.3 16.4 120.1 16.1 120.5 16.0 120.3
1998-10-23 06:00:00 16.4 119.5 16.6 119.4 16.4 119.5 16.4 119.6
1998-10-23 12:00:00 16.5 118.9 16.7 118.7 16.8 118.9 16.7 119.0
1998-10-23 18:00:00 16.6 118.3 16.9 118.0 17.4 118.6 17.1 118.3
jtwc_wp tokyo cma hko
1998-10-24 00:00:00 16.8 117.7 17.2 117.3 18.0 118.0 17.4 117.6
1998-10-24 06:00:00 17.6 117.2 17.7 116.7 18.0 117.4 17.9 116.9
1998-10-24 12:00:00 18.0 116.9 18.2 116.3 18.4 116.7 18.3 116.4
1998-10-24 18:00:00 18.5 116.5 18.7 116.0 18.7 116.2 18.7 116.1
1998-10-25 00:00:00 19.0 116.3 19.2 115.8 19.1 115.8 19.1 115.9
1998-10-25 06:00:00 19.6 116.3 19.8 115.7 19.7 115.8 19.6 115.8
1998-10-25 12:00:00 20.2 116.3 20.3 115.7 20.2 115.9 20.1 115.8
1998-10-25 18:00:00 20.8 116.4 20.8 115.8 20.5 116.1 20.6 115.9
1998-10-26 00:00:00 21.4 116.7 21.3 116.2 20.8 116.2 21.2 116.2
1998-10-26 06:00:00 22.0 117.0 21.8 116.6 21.7 116.7 21.7 116.6
1998-10-26 12:00:00 22.5 117.2 22.4 117.1 22.4 117.3 22.2 117.0
1998-10-26 18:00:00 22.9 117.5 22.8 117.4 23.1 117.7 22.7 117.4
1998-10-27 00:00:00 23.3 117.8 23.1 117.7 23.6 118.1 23.2 117.9
1998-10-27 06:00:00 23.9 118.2 23.2 117.8 24.1 118.5 23.7 118.3
1998-10-27 12:00:00 24.3 118.6 23.3 118.0 24.5 119.0 24.3 118.6
1998-10-27 18:00:00 24.7 119.0 25.1 120.8 25.0 120.5
1998-10-28 00:00:00 26.3 122.6
1998-10-28 06:00:00 27.9 125.3
1998-10-28 12:00:00 28.8 127.4
1998-10-28 18:00:00 29.8 129.6
1998-10-29 00:00:00 30.0 132.7
1998-10-29 06:00:00 30.1 135.4
1998-10-29 12:00:00 30.4 137.1
1998-10-29 18:00:00 30.6 138.0
jtwc_wp tokyo cma hko
1998-10-30 00:00:00 30.8 138.9

top of pageTrack Data:Intensity

jtwc_wp tokyo cma hko
Date Wind Pres Wind Pres Wind Pres Wind Pres
1998-10-11 18:00:00 20.
1998-10-12 00:00:00 20.
1998-10-12 06:00:00 20.
1998-10-12 12:00:00 20.
1998-10-12 18:00:00 20.
1998-10-13 00:00:00 20.
1998-10-13 06:00:00 20.
1998-10-13 12:00:00 25.
1998-10-13 18:00:00 25.
1998-10-14 00:00:00 25.
1998-10-14 06:00:00 25. 1004.
1998-10-14 12:00:00 25. 1004.
1998-10-14 18:00:00 30. 1000.
1998-10-15 00:00:00 30. 35. 998. 30. 1000.
1998-10-15 06:00:00 35. 35. 998. 30. 1000.
1998-10-15 12:00:00 40. 35. 996. 30. 1000.
1998-10-15 18:00:00 45. 35. 996. 30. 1000.
1998-10-16 00:00:00 45. 35. 996. 30. 1000.
1998-10-16 06:00:00 45. 35. 996. 30. 1000.
1998-10-16 12:00:00 45. 35. 998. 30. 1000.
1998-10-16 18:00:00 45. 35. 998. 30. 1000.
1998-10-17 00:00:00 45. 35. 998. 29. 1000. 30. 1000.
1998-10-17 06:00:00 45. 35. 998. 29. 1000. 30. 1000.
1998-10-17 12:00:00 40. 35. 998. 29. 998. 30. 1000.
1998-10-17 18:00:00 40. 35. 998. 29. 998. 30. 1000.
jtwc_wp tokyo cma hko
1998-10-18 00:00:00 40. 35. 998. 29. 998. 35. 998.
1998-10-18 06:00:00 40. 35. 998. 29. 995. 35. 998.
1998-10-18 12:00:00 45. 40. 994. 29. 995. 40. 994.
1998-10-18 18:00:00 50. 45. 992. 39. 990. 45. 990.
1998-10-19 00:00:00 65. 55. 985. 49. 985. 55. 980.
1998-10-19 06:00:00 65. 55. 985. 49. 985. 55. 980.
1998-10-19 12:00:00 65. 60. 980. 54. 985. 60. 975.
1998-10-19 18:00:00 75. 65. 975. 68. 975. 65. 970.
1998-10-20 00:00:00 115. 75. 965. 78. 965. 75. 960.
1998-10-20 06:00:00 125. 80. 950. 87. 955. 85. 950.
1998-10-20 12:00:00 135. 85. 940. 97. 940. 95. 940.
1998-10-20 18:00:00 135. 85. 940. 97. 940. 95. 940.
1998-10-21 00:00:00 135. 85. 940. 97. 940. 95. 940.
1998-10-21 06:00:00 130. 85. 940. 97. 940. 95. 940.
1998-10-21 12:00:00 130. 85. 945. 97. 940. 95. 940.
1998-10-21 18:00:00 120. 80. 950. 87. 950. 90. 945.
1998-10-22 00:00:00 105. 75. 955. 87. 950. 85. 950.
1998-10-22 06:00:00 90. 70. 960. 78. 960. 75. 960.
1998-10-22 12:00:00 115. 70. 965. 78. 960. 70. 965.
1998-10-22 18:00:00 95. 65. 970. 68. 970. 70. 965.
1998-10-23 00:00:00 85. 60. 970. 64. 975. 70. 965.
1998-10-23 06:00:00 80. 60. 970. 64. 975. 70. 965.
1998-10-23 12:00:00 80. 65. 970. 64. 975. 70. 965.
1998-10-23 18:00:00 80. 65. 970. 64. 975. 70. 965.
jtwc_wp tokyo cma hko
1998-10-24 00:00:00 80. 70. 970. 64. 975. 70. 965.
1998-10-24 06:00:00 80. 70. 970. 64. 975. 70. 965.
1998-10-24 12:00:00 80. 75. 965. 64. 975. 70. 965.
1998-10-24 18:00:00 80. 75. 965. 64. 975. 70. 965.
1998-10-25 00:00:00 75. 70. 965. 64. 975. 70. 965.
1998-10-25 06:00:00 75. 70. 965. 64. 975. 70. 965.
1998-10-25 12:00:00 75. 70. 965. 64. 975. 70. 965.
1998-10-25 18:00:00 70. 70. 965. 64. 975. 65. 970.
1998-10-26 00:00:00 65. 65. 970. 64. 975. 65. 970.
1998-10-26 06:00:00 65. 60. 975. 64. 975. 65. 970.
1998-10-26 12:00:00 65. 60. 975. 64. 975. 60. 975.
1998-10-26 18:00:00 65. 55. 980. 58. 980. 60. 975.
1998-10-27 00:00:00 50. 45. 990. 49. 985. 50. 985.
1998-10-27 06:00:00 45. 35. 998. 39. 995. 40. 994.
1998-10-27 12:00:00 30. 1004. 29. 1002. 30. 1000.
1998-10-27 18:00:00 25. 1012. 23. 1004.
1998-10-28 00:00:00 1012.
1998-10-28 06:00:00 1012.
1998-10-28 12:00:00 1012.
1998-10-28 18:00:00 1012.
1998-10-29 00:00:00 1012.
1998-10-29 06:00:00 1012.
1998-10-29 12:00:00 1012.
1998-10-29 18:00:00 1014.
jtwc_wp tokyo cma hko
1998-10-30 00:00:00 1014.

top of page Links to source data

Source Source file Format
jtwc_wp bwp201998.txt ATCF
tokyo bst_all.txt:Line=48466:BABS:9811 JMA text table
cma CH1998BST.txt:Storm=16:BABS CMA text table
hko tc-besttrack-data.txt:Line=27324:BABS HKO Text table